Home > Products > Valid Products > MTR

000
SAUS43 KDTX 280853
MTRP58
METAR KP58 280851Z AUTO VRB03KT 16/11 A3012 RMK AO1 SLP196 T01560106
55001





000
SAUS43 KDTX 280754
MTRP58
METAR KP58 280751Z AUTO VRB03KT 16/09 A3012 RMK AO1 SLP196 T01560094





000
SAUS43 KDTX 280652
MTRP58
METAR KP58 280651Z AUTO 00000KT 16/09 A3012 RMK AO1 SLP197 T01560094





000
SAUS43 KDTX 280554
MTRP58
METAR KP58 280551Z AUTO 00000KT 16/11 A3013 RMK AO1 SLP198 T01610106
10183 20161 50004





000
SAUS43 KDTX 280454
MTRP58
METAR KP58 280451Z AUTO 00000KT 16/11 A3013 RMK AO1 SLP200 T01610111
402110161





000
SAUS43 KDTX 280352
MTRP58
METAR KP58 280351Z AUTO 00000KT 17/11 A3013 RMK AO1 SLP199 T01670111





000
SAUS43 KDTX 280254
MTRP58
METAR KP58 280251Z AUTO 01010KT 18/13 A3011 RMK AO1 SLP194 T01780128
58000





000
SAUS43 KDTX 280154
MTRP58
METAR KP58 280151Z AUTO 02009KT 18/12 A3012 RMK AO1 SLP196 T01780117





000
SAUS43 KDTX 280054
MTRP58
METAR KP58 280051Z AUTO 02009KT 18/12 A3011 RMK AO1 SLP194 T01780117





000
SAUS43 KDTX 272354
MTRP58
METAR KP58 272351Z AUTO 02007KT 18/12 A3011 RMK AO1 SLP193 T01780117
10211 20178 50001





000
SAUS43 KDTX 272254
MTRP58
METAR KP58 272251Z AUTO 03011KT 18/13 A3012 RMK AO1 SLP195 T01780128





000
SAUS43 KDTX 272153
MTRP58
METAR KP58 272151Z AUTO 01004KT 20/12 A3011 RMK AO1 SLP193 T02000117





000
SAUS43 KDTX 272054
MTRP58
METAR KP58 272051Z AUTO 00000KT 21/12 A3011 RMK AO1 SLP191 T02110122
56007





000
SAUS43 KDTX 271954 COR
MTRP58
METAR KP58 271951Z AUTO 00000KT 21/12 A3012 RMK AO1 SLP193 T02060117





000
SAUS43 KDTX 271853
MTRP58
METAR KP58 271851Z AUTO 32005KT 20/12 A3012 RMK AO1 SLP196 T02000122





000
SAUS43 KDTX 271754
MTRP58
METAR KP58 271751Z AUTO 00000KT 21/13 A3013 RMK AO1 SLP198 T02110133
10211 20172 50003





000
SAUS43 KDTX 271654
MTRP58
METAR KP58 271651Z AUTO VRB03KT 19/12 A3014 RMK AO1 SLP201 T01890117





000
SAUS43 KDTX 271553
MTRP58
METAR KP58 271551Z AUTO 31006KT 18/12 A3014 RMK AO1 SLP201 T01830122





000
SAUS43 KDTX 271454
MTRP58
METAR KP58 271451Z AUTO VRB04KT 17/12 A3012 RMK AO1 SLP196 T01720122
50003





000
SAUS43 KDTX 271354
MTRP58
METAR KP58 271351Z AUTO 30005KT 17/13 A3013 RMK AO1 SLP200 T01720128





000
SAUS43 KDTX 271254
MTRP58
METAR KP58 271251Z AUTO 31006KT 18/13 A3013 RMK AO1 SLP200 T01780128





000
SAUS43 KDTX 271154
MTRP58
METAR KP58 271151Z AUTO 00000KT 18/13 A3011 RMK AO1 SLP192 T01830128
10183 20167 51006





000
SAUS43 KDTX 271054
MTRP58
METAR KP58 271051Z AUTO 00000KT 17/13 A3011 RMK AO1 SLP192 T01670128





000
SAUS43 KDTX 270954
MTRP58
METAR KP58 270951Z AUTO 00000KT 17/12 A3010 RMK AO1 SLP185 T01720122





000
SAUS43 KDTX 270954
MTRP58
METAR KP58 270951Z AUTO 00000KT 17/12 A3010 RMK AO1 SLP185 T01720122





000
SAUS43 KDTX 270854
MTRP58
METAR KP58 270851Z AUTO VRB03KT 18/13 A3009 RMK AO1 SLP184 T01780128
50001





000
SAUS43 KDTX 270754
MTRP58
METAR KP58 270751Z AUTO VRB03KT 18/12 A3010 RMK AO1 SLP184 T01780122





000
SAUS43 KDTX 270654
MTRP58
METAR KP58 270651Z AUTO 01006KT 18/13 A3010 RMK AO1 SLP184 T01830133





000
SAUS43 KDTX 270552
MTRP58
METAR KP58 270551Z AUTO 01008KT 320V020 18/13 A3009 RMK AO1 SLP182
T01830133 10200 20183 51014





000
SAUS43 KDTX 270453 COR
MTRP58
METAR KP58 270451Z AUTO 02010KT 18/14 A3009 RMK AO1 SLP181 T01830144
402890183





000
SAUS43 KDTX 270452 COR
MTRP58
METAR KP58 270451Z AUTO 02010KT 18/14 A3009 RMK AO1 SLP181 T01830144
402890183





000
SAUS43 KDTX 270354
MTRP58
METAR KP58 270351Z AUTO 02009KT 19/15 A3007 RMK AO1 SLP177 T01890150





000
SAUS43 KDTX 270253
MTRP58
METAR KP58 270251Z AUTO 02007KT 19/15 A3005 RMK AO1 SLP169 T01940150
53006





000
SAUS43 KDTX 270153 COR
MTRP58
METAR KP58 270151Z AUTO 01008KT 19/16 A3004 RMK AO1 SLP166 T01940156





000
SAUS43 KDTX 270054
MTRP58
METAR KP58 270051Z AUTO 03009KT 20/16 A3004 RMK AO1 SLP164 T02000156





000
SAUS43 KDTX 262353
MTRP58
METAR KP58 262351Z AUTO 05007KT 20/16 A3003 RMK AO1 SLP164 T02000156
10289 20200 53014





000
SAUS43 KDTX 262253
MTRP58
METAR KP58 262251Z AUTO 05007KT 20/17 A3003 RMK AO1 SLP162 T02000167





000
SAUS43 KDTX 262153 COR
MTRP58
METAR KP58 262151Z AUTO VRB03KT 28/22 A2999 RMK AO1 SLP146 T02780217





000
SAUS43 KDTX 262054
MTRP58
METAR KP58 262051Z AUTO VRB03KT 28/22 A2999 RMK AO1 SLP146 T02780217
58008





000
SAUS43 KDTX 261954
MTRP58
METAR KP58 261951Z AUTO 26007KT 28/21 A3000 RMK AO1 SLP150 T02830211





000
SAUS43 KDTX 261854
MTRP58
METAR KP58 261851Z AUTO 00000KT 28/21 A3002 RMK AO1 SLP155 T02780211





000
SAUS43 KDTX 261753 COR
MTRP58
METAR KP58 261751Z AUTO VRB03KT 28/21 A3001 RMK AO1 SLP154 T02780206
10278 20222 58002





000
SAUS43 KDTX 261654
MTRP58
METAR KP58 261651Z AUTO VRB03KT 26/19 A3002 RMK AO1 SLP156 T02610194





000
SAUS43 KDTX 261554 COR
MTRP58
METAR KP58 261551Z AUTO 23006KT 26/20 A3003 RMK AO1 SLP159 T02610200





000
SAUS43 KDTX 261453
MTRP58
METAR KP58 261451Z AUTO VRB03KT 26/21 A3002 RMK AO1 SLP156 T02610206
58002





000
SAUS43 KDTX 261354
MTRP58
METAR KP58 261351Z AUTO 25007KT 220V290 24/20 A3003 RMK AO1 SLP160
T02440200





000
SAUS43 KDTX 261252
MTRP58
METAR KP58 261251Z AUTO VRB05KT 24/20 A3002 RMK AO1 SLP156 T02390200





000
SAUS43 KDTX 261154
MTRP58
METAR KP58 261151Z AUTO 25003KT 22/19 A3002 RMK AO1 SLP159 T02220194
10228 20211 53008





000
SAUS43 KDTX 261054
MTRP58
METAR KP58 261051Z AUTO 22005KT 21/19 A3001 RMK AO1 SLP153 T02110194





000
SAUS43 KDTX 260952
MTRP58
METAR KP58 260951Z AUTO 22005KT 21/19 A3000 RMK AO1 SLP149 T02110189





000
SAUS43 KDTX 260854
MTRP58
METAR KP58 260851Z AUTO 22004KT 22/19 A3000 RMK AO1 SLP150 T02170189
55000





000
SAUS43 KDTX 260752
MTRP58
METAR KP58 260751Z AUTO 22005KT 22/19 A3000 RMK AO1 SLP150 T02220189





000
SAUS43 KDTX 260652
MTRP58
METAR KP58 260651Z AUTO VRB05KT 23/19 A2999 RMK AO1 SLP146 T02280189





000
SAUS43 KDTX 260554
MTRP58
METAR KP58 260551Z AUTO VRB03KT 22/19 A3000 RMK AO1 SLP152 T02220189
10250 20222 55001





000
SAUS43 KDTX 260454
MTRP58
METAR KP58 260451Z AUTO VRB04KT 23/18 A3000 RMK AO1 SLP150 T02280183
402720178





000
SAUS43 KDTX 260353
MTRP58
METAR KP58 260351Z AUTO 18006KT 23/19 A2999 RMK AO1 SLP147 T02280189





000
SAUS43 KDTX 260254 COR
MTRP58
METAR KP58 260251Z AUTO 16005KT 23/19 A3000 RMK AO1 SLP151 T02330194
58002





000
SAUS43 KDTX 260153
MTRP58
METAR KP58 260151Z AUTO VRB03KT 24/20 A3001 RMK AO1 SLP153 T02390200





000
SAUS43 KDTX 260053
MTRP58
METAR KP58 260051Z AUTO 14004KT 24/21 A3001 RMK AO1 SLP154 T02440211





000
SAUS43 KDTX 252354
MTRP58
METAR KP58 252351Z AUTO 14003KT 25/21 A3001 RMK AO1 SLP155 T02500211
10272 20233 55003





000
SAUS43 KDTX 252254 COR
MTRP58
METAR KP58 252251Z AUTO 16006KT 27/21 A3000 RMK AO1 SLP152 T02670206





000
SAUS43 KDTX 252154 COR
MTRP58
METAR KP58 252151Z AUTO 16006KT 26/21 A3000 RMK AO1 SLP151 T02610206





000
SAUS43 KDTX 252054 COR
MTRP58
METAR KP58 252051Z AUTO 15006KT 26/21 A3002 RMK AO1 SLP158 T02610211
58017





000
SAUS43 KDTX 251954 COR
MTRP58
METAR KP58 251951Z AUTO 12007KT 26/21 A3005 RMK AO1 SLP168 T02560206





000
SAUS43 KDTX 251853 COR
MTRP58
METAR KP58 251851Z AUTO 12009KT 24/21 A3007 RMK AO1 SLP174 T02440206





000
SAUS43 KDTX 251752
MTRP58
METAR KP58 251751Z AUTO 12010KT 23/20 A3007 RMK AO1 SLP175 T02330200
10261 20189 58002





000
SAUS43 KDTX 251652
MTRP58
METAR KP58 251651Z AUTO 11014KT 23/20 A3008 RMK AO1 SLP178 T02280200





000
SAUS43 KDTX 251553
MTRP58
METAR KP58 251551Z AUTO 17004KT 26/21 A3008 RMK AO1 SLP176 T02610206





000
SAUS43 KDTX 251452
MTRP58
METAR KP58 251451Z AUTO 14006KT 25/20 A3008 RMK AO1 SLP177 T02500200
55007





000
SAUS43 KDTX 251353
MTRP58
METAR KP58 251351Z AUTO 14008KT 23/19 A3007 RMK AO1 SLP174 T02280189





000
SAUS43 KDTX 251252
MTRP58
METAR KP58 251251Z AUTO 00000KT 21/18 A3009 RMK AO1 SLP182 T02110183





000
SAUS43 KDTX 251154
MTRP58
METAR KP58 251151Z AUTO 00000KT 19/17 A3010 RMK AO1 SLP186 T01890172
10194 20178 51010





000
SAUS43 KDTX 251054
MTRP58
METAR KP58 251051Z AUTO 00000KT 19/17 A3009 RMK AO1 SLP186 T01890167





000
SAUS43 KDTX 250954
MTRP58
METAR KP58 250951Z AUTO 16004KT 18/17 A3008 RMK AO1 SLP180 T01780167





    US Dept of Commerce
    National Oceanic and Atmospheric Administration
    National Weather Service
    1325 East West Highway
    Silver Spring, MD 20910
    Page Author: NWS Internet Services Team
Disclaimer
Information Quality
Credits
Glossary
Privacy Policy
Freedom of Information Act (FOIA)
About Us
Career Opportunities